South Pass, Louisiana
Current Conditions -  °F | °C
As of 8:51 AM on Monday 24 Nov 2014 (Local Time) from KBVE Reporting Station
Haze Haze  
Wind Chill: 19°   Ceiling: Unl
Heat Index: 19°   Visibility: 3mi
Dew Point: 19°   Wind: 9mph
Humidity: 100%   Direction: 280°W
Pressure: 29.88"   Gusts: NA
Location:  29.2037°N, 89.3875°W
Report Text: KBVE 241451Z AUTO 28008KT 3SM BR CLR 19/19 A2988 RMK AO2 SLP116 T01940194 53016
Loading
Personal Weather Stations






























Interactive Weather Map New forecast layout! Learn more

10-Day Weather Forecast

Advertisements
Track Severe Weather on mobile